Aviation Digital Data Service (ADDS)

Output produced by TAFs form (0756 UTC 22 October 2014)
found at http://aviationweather.gov/adds/tafs/
 
KDRO 220520Z 2206/2306 34005KT P6SM SCT070 
     FM221400 VRB03KT P6SM SCT100 
     FM221900 28008KT P6SM SCT100 
     FM230200 34005KT P6SM FEW250